createdAt,value
2023-04-02T00:01:04.362Z,0.10
2023-04-02T00:03:44.666Z,0.10
2023-04-02T00:06:30.471Z,0.33
2023-04-02T00:08:59.673Z,0.17
2023-04-02T00:11:35.622Z,0.10
2023-04-02T00:14:02.989Z,0.10
2023-04-02T00:16:29.931Z,0.20
2023-04-02T00:18:59.045Z,0.20
2023-04-02T00:21:27.565Z,0.20
2023-04-02T00:23:55.815Z,0.10
2023-04-02T00:26:31.458Z,0.20
2023-04-02T00:28:59.612Z,0.17
2023-04-02T00:31:27.451Z,0.13
2023-04-02T00:33:54.659Z,0.10
2023-04-02T00:36:22.291Z,0.20
2023-04-02T00:38:49.237Z,8.70
2023-04-02T00:41:24.323Z,10.83
2023-04-02T00:43:52.124Z,8.70
2023-04-02T00:46:22.296Z,9.27
2023-04-02T00:49:05.808Z,9.93
2023-04-02T00:51:48.524Z,12.17
2023-04-02T00:54:18.632Z,12.67
2023-04-02T00:56:46.925Z,13.90
2023-04-02T00:59:20.135Z,10.33
2023-04-02T01:01:54.501Z,11.57
2023-04-02T01:04:29.644Z,8.90
2023-04-02T01:06:56.809Z,10.47
2023-04-02T01:09:23.473Z,12.67
2023-04-02T01:12:00.800Z,10.13
2023-04-02T01:14:51.294Z,9.97
2023-04-02T01:17:18.708Z,12.37
2023-04-02T01:19:54.761Z,13.40
2023-04-02T01:22:31.062Z,13.97
2023-04-02T01:24:58.390Z,12.40
2023-04-02T01:27:28.870Z,10.50
2023-04-02T01:29:56.962Z,11.73
2023-04-02T01:32:25.117Z,15.50
2023-04-02T01:34:52.581Z,11.37
2023-04-02T01:37:22.503Z,11.50
2023-04-02T01:39:58.299Z,13.13
2023-04-02T01:42:29.101Z,11.60
2023-04-02T01:45:08.226Z,12.90
2023-04-02T01:47:35.537Z,11.70
2023-04-02T01:50:20.538Z,12.90
2023-04-02T01:52:49.613Z,13.20
2023-04-02T01:55:19.855Z,16.13
2023-04-02T01:57:49.456Z,15.97
2023-04-02T02:00:17.101Z,12.93
2023-04-02T02:02:49.201Z,14.37
2023-04-02T02:05:17.412Z,13.63
2023-04-02T02:07:46.720Z,14.40
2023-04-02T02:10:17.702Z,13.30
2023-04-02T02:12:45.000Z,14.40
2023-04-02T02:15:17.162Z,14.93
2023-04-02T02:17:44.972Z,11.80
2023-04-02T02:20:13.549Z,15.40
2023-04-02T02:22:44.898Z,15.60
2023-04-02T02:25:16.794Z,14.53
2023-04-02T02:27:46.991Z,13.27
2023-04-02T02:30:17.357Z,13.80
2023-04-02T02:32:51.833Z,15.50
2023-04-02T02:35:21.208Z,15.93
2023-04-02T02:37:52.907Z,15.57
2023-04-02T02:40:26.962Z,16.63
2023-04-02T02:43:04.588Z,14.67
2023-04-02T02:45:37.926Z,16.30
2023-04-02T02:48:07.056Z,12.40
2023-04-02T02:50:34.541Z,14.87
2023-04-02T02:53:12.571Z,15.30
2023-04-02T02:55:40.061Z,16.40
2023-04-02T02:58:23.562Z,20.67
2023-04-02T03:01:13.724Z,16.27
2023-04-02T03:03:44.996Z,17.40
2023-04-02T03:06:16.804Z,18.40
2023-04-02T03:08:51.302Z,18.83
2023-04-02T03:11:38.730Z,16.27
2023-04-02T03:14:22.567Z,16.43
2023-04-02T03:16:53.093Z,13.53
2023-04-02T03:19:38.787Z,14.10
2023-04-02T03:22:08.734Z,12.27
2023-04-02T03:24:49.313Z,11.67
2023-04-02T03:27:22.652Z,14.30
2023-04-02T03:29:58.894Z,13.83
2023-04-02T03:32:29.119Z,11.80
2023-04-02T03:35:08.588Z,10.53
2023-04-02T03:37:39.421Z,8.97
2023-04-02T03:40:09.871Z,11.20
2023-04-02T03:42:57.942Z,13.57
2023-04-02T03:45:27.065Z,14.80
2023-04-02T03:48:06.776Z,14.17
2023-04-02T03:50:39.185Z,16.83
2023-04-02T03:53:05.914Z,16.57
2023-04-02T03:55:35.826Z,15.10
2023-04-02T03:58:06.452Z,13.60
2023-04-02T04:00:44.571Z,9.93
2023-04-02T04:03:14.501Z,13.60
2023-04-02T04:05:48.764Z,11.97
2023-04-02T04:08:21.365Z,13.50
2023-04-02T04:10:52.632Z,13.37
2023-04-02T04:13:22.598Z,15.40
2023-04-02T04:15:58.348Z,10.63
2023-04-02T04:18:35.098Z,10.67
2023-04-02T04:21:12.474Z,12.67
2023-04-02T04:23:41.278Z,12.13
2023-04-02T04:26:20.118Z,12.77
2023-04-02T04:29:09.820Z,10.67
2023-04-02T04:31:41.409Z,10.10
2023-04-02T04:34:16.214Z,10.07
2023-04-02T04:36:55.285Z,11.37
2023-04-02T04:39:34.911Z,10.97
2023-04-02T04:42:03.314Z,13.03
2023-04-02T04:44:51.804Z,11.03
2023-04-02T04:47:21.375Z,11.10
2023-04-02T04:49:54.110Z,11.73
2023-04-02T04:52:24.860Z,14.63
2023-04-02T04:54:52.439Z,16.07
2023-04-02T04:57:30.172Z,14.47
2023-04-02T05:00:01.225Z,13.47
2023-04-02T05:02:32.553Z,15.93
2023-04-02T05:05:00.839Z,18.53
2023-04-02T05:07:27.940Z,19.60
2023-04-02T05:09:57.071Z,14.07
2023-04-02T05:12:46.118Z,13.90
2023-04-02T05:15:21.038Z,16.33
2023-04-02T05:17:59.807Z,14.77
2023-04-02T05:20:34.370Z,22.10
2023-04-02T05:23:04.842Z,25.23
2023-04-02T05:25:33.144Z,18.70
2023-04-02T05:28:06.600Z,19.53
2023-04-02T05:30:52.970Z,17.33
2023-04-02T05:33:27.259Z,13.53
2023-04-02T05:36:09.464Z,15.93
2023-04-02T05:38:44.606Z,15.30
2023-04-02T05:41:19.405Z,14.50
2023-04-02T05:43:47.831Z,14.70
2023-04-02T05:46:21.502Z,15.07
2023-04-02T05:48:51.312Z,15.23
2023-04-02T05:51:24.662Z,16.20
2023-04-02T05:54:00.268Z,17.67
2023-04-02T05:56:34.397Z,15.60
2023-04-02T05:59:21.777Z,17.07
2023-04-02T06:02:08.325Z,18.00
2023-04-02T06:04:45.025Z,22.87
2023-04-02T06:07:18.143Z,17.97
2023-04-02T06:09:54.488Z,13.40
2023-04-02T06:12:28.726Z,12.73
2023-04-02T06:14:56.231Z,14.93
2023-04-02T06:17:27.577Z,12.07
2023-04-02T06:19:57.715Z,13.03
2023-04-02T06:22:27.489Z,15.33
2023-04-02T06:25:17.958Z,12.10
2023-04-02T06:27:46.088Z,17.50
2023-04-02T06:30:35.871Z,14.60
2023-04-02T06:33:05.092Z,14.40
2023-04-02T06:35:36.858Z,13.37
2023-04-02T06:38:06.021Z,16.27
2023-04-02T06:40:50.059Z,14.30
2023-04-02T06:43:36.625Z,15.30
2023-04-02T06:46:17.008Z,15.07
2023-04-02T06:49:02.404Z,16.97
2023-04-02T06:51:31.447Z,16.27
2023-04-02T06:53:58.544Z,17.43
2023-04-02T06:56:25.395Z,20.67
2023-04-02T06:58:52.642Z,13.63
2023-04-02T07:01:23.947Z,18.20
2023-04-02T07:03:51.148Z,16.23
2023-04-02T07:06:28.924Z,16.87
2023-04-02T07:08:59.552Z,19.43
2023-04-02T07:11:27.257Z,15.23
2023-04-02T07:13:57.524Z,17.00
2023-04-02T07:16:27.190Z,13.27
2023-04-02T07:18:55.747Z,11.43
2023-04-02T07:21:23.386Z,15.13
2023-04-02T07:23:50.574Z,16.17
2023-04-02T07:26:20.739Z,13.73
2023-04-02T07:28:47.424Z,15.13
2023-04-02T07:31:24.631Z,15.67
2023-04-02T07:33:51.736Z,14.67
2023-04-02T07:36:20.223Z,14.97
2023-04-02T07:38:47.067Z,12.90
2023-04-02T07:41:13.803Z,13.63
2023-04-02T07:43:41.257Z,16.90
2023-04-02T07:46:08.841Z,18.40
2023-04-02T07:48:35.998Z,17.83
2023-04-02T07:51:06.182Z,18.93
2023-04-02T07:53:34.506Z,11.87
2023-04-02T07:56:03.097Z,15.43
2023-04-02T07:58:30.256Z,14.17
2023-04-02T08:00:57.525Z,14.00
2023-04-02T08:03:24.561Z,18.90
2023-04-02T08:05:53.213Z,17.80
2023-04-02T08:08:20.638Z,18.90
2023-04-02T08:10:47.496Z,20.37
2023-04-02T08:13:14.609Z,23.50
2023-04-02T08:15:41.433Z,23.83
2023-04-02T08:18:08.662Z,28.70
2023-04-02T08:20:35.845Z,26.57
2023-04-02T08:23:03.335Z,23.47
2023-04-02T08:25:30.135Z,21.73
2023-04-02T08:27:57.980Z,20.97
2023-04-02T08:30:24.915Z,18.53
2023-04-02T08:32:52.255Z,16.67
2023-04-02T08:35:19.154Z,17.27
2023-04-02T08:37:46.265Z,21.73
2023-04-02T08:40:20.118Z,18.47
2023-04-02T08:42:50.805Z,23.60
2023-04-02T08:45:25.306Z,21.07
2023-04-02T08:47:55.586Z,24.73
2023-04-02T08:50:22.337Z,18.60
2023-04-02T08:52:49.143Z,21.20
2023-04-02T08:55:40.069Z,19.47
2023-04-02T08:58:22.977Z,22.40
2023-04-02T09:00:53.690Z,18.13
2023-04-02T09:03:26.108Z,14.77
2023-04-02T09:05:53.276Z,15.67
2023-04-02T09:08:27.430Z,17.63
2023-04-02T09:10:57.287Z,16.33
2023-04-02T09:13:25.162Z,16.10
2023-04-02T09:15:56.326Z,13.97
2023-04-02T09:18:23.267Z,16.00
2023-04-02T09:20:50.314Z,11.20
2023-04-02T09:23:18.880Z,10.73
2023-04-02T09:25:57.476Z,12.40
2023-04-02T09:28:30.058Z,17.47
2023-04-02T09:31:00.737Z,13.53
2023-04-02T09:33:41.561Z,14.07
2023-04-02T09:36:17.440Z,15.13
2023-04-02T09:38:57.240Z,11.30
2023-04-02T09:41:27.395Z,13.47
2023-04-02T09:44:11.723Z,13.03
2023-04-02T09:46:47.011Z,13.77
2023-04-02T09:49:16.100Z,16.43
2023-04-02T09:51:42.849Z,13.33
2023-04-02T09:54:16.578Z,12.13
2023-04-02T09:57:01.013Z,11.63
2023-04-02T09:59:28.395Z,14.37
2023-04-02T10:01:55.052Z,10.97
2023-04-02T10:04:46.049Z,11.73
2023-04-02T10:07:31.486Z,14.37
2023-04-02T10:09:59.240Z,14.63
2023-04-02T10:12:27.290Z,10.40
2023-04-02T10:14:54.540Z,13.30
2023-04-02T10:17:32.454Z,14.00
2023-04-02T10:20:01.762Z,10.73
2023-04-02T10:22:28.901Z,9.77
2023-04-02T10:24:55.722Z,12.37
2023-04-02T10:27:49.294Z,11.80
2023-04-02T10:30:19.344Z,12.13
2023-04-02T10:32:52.272Z,9.07
2023-04-02T10:35:19.350Z,10.13
2023-04-02T10:37:46.235Z,11.53
2023-04-02T10:40:31.527Z,12.07
2023-04-02T10:43:01.255Z,13.43
2023-04-02T10:45:49.420Z,13.60
2023-04-02T10:48:28.192Z,10.77
2023-04-02T10:51:06.951Z,12.67
2023-04-02T10:53:36.544Z,7.10
2023-04-02T10:56:05.799Z,12.50
2023-04-02T10:58:35.921Z,8.73
2023-04-02T11:01:07.215Z,12.43
2023-04-02T11:03:37.751Z,7.40
2023-04-02T11:06:17.828Z,11.90
2023-04-02T11:08:57.443Z,10.97
2023-04-02T11:11:27.679Z,10.23
2023-04-02T11:14:23.913Z,9.87
2023-04-02T11:16:51.251Z,11.67
2023-04-02T11:19:22.457Z,9.87
2023-04-02T11:21:59.475Z,14.00
2023-04-02T11:24:32.728Z,10.33
2023-04-02T11:27:11.500Z,12.10
2023-04-02T11:29:39.668Z,12.20
2023-04-02T11:32:15.858Z,11.47
2023-04-02T11:34:43.181Z,10.33
2023-04-02T11:37:28.714Z,9.97
2023-04-02T11:39:57.040Z,8.93
2023-04-02T11:42:25.068Z,13.30
2023-04-02T11:44:52.806Z,7.13
2023-04-02T11:47:29.984Z,11.53
2023-04-02T11:49:58.901Z,10.20
2023-04-02T11:52:25.795Z,10.97
2023-04-02T11:54:57.444Z,10.10
2023-04-02T11:57:33.855Z,9.57
2023-04-02T12:00:17.988Z,8.70
2023-04-02T12:03:02.716Z,9.63
2023-04-02T12:06:08.110Z,11.33
2023-04-02T12:08:57.007Z,9.37
2023-04-02T12:11:32.280Z,9.77
2023-04-02T12:13:59.298Z,15.53
2023-04-02T12:16:31.572Z,7.97
2023-04-02T12:18:59.459Z,8.10
2023-04-02T12:21:27.405Z,8.03
2023-04-02T12:23:55.872Z,6.30
2023-04-02T12:26:38.202Z,6.03
2023-04-02T12:29:15.146Z,7.50
2023-04-02T12:31:46.628Z,5.60
2023-04-02T12:34:15.055Z,8.17
2023-04-02T12:36:51.568Z,6.70
2023-04-02T12:39:18.616Z,6.93
2023-04-02T12:41:45.476Z,7.37
2023-04-02T12:44:16.566Z,7.17
2023-04-02T12:46:44.281Z,5.33
2023-04-02T12:49:17.560Z,5.57
2023-04-02T12:51:44.447Z,5.53
2023-04-02T12:54:14.407Z,8.67
2023-04-02T12:56:41.148Z,5.57
2023-04-02T12:59:24.552Z,4.90
2023-04-02T13:02:01.050Z,4.90
2023-04-02T13:04:28.453Z,5.43
2023-04-02T13:06:56.001Z,5.23
2023-04-02T13:09:35.029Z,6.33
2023-04-02T13:12:03.149Z,6.50
2023-04-02T13:14:30.070Z,6.47
2023-04-02T13:16:56.959Z,7.40
2023-04-02T13:19:25.916Z,7.80
2023-04-02T13:21:53.562Z,7.83
2023-04-02T13:24:21.650Z,5.83
2023-04-02T13:26:49.863Z,5.80
2023-04-02T13:29:30.585Z,5.27
2023-04-02T13:31:58.843Z,7.00
2023-04-02T13:34:25.677Z,5.70
2023-04-02T13:36:52.459Z,5.97
2023-04-02T13:39:20.636Z,8.13
2023-04-02T13:41:49.130Z,4.27
2023-04-02T13:44:26.432Z,5.03
2023-04-02T13:46:53.902Z,4.47
2023-04-02T13:49:21.189Z,4.57
2023-04-02T13:51:58.021Z,4.73
2023-04-02T13:54:24.750Z,5.57
2023-04-02T13:56:51.838Z,5.37
2023-04-02T13:59:19.017Z,7.13
2023-04-02T14:01:47.161Z,6.33
2023-04-02T14:04:16.745Z,5.47
2023-04-02T14:06:43.507Z,7.50
2023-04-02T14:09:23.445Z,4.63
2023-04-02T14:12:00.756Z,5.77
2023-04-02T14:14:46.730Z,6.20
2023-04-02T14:17:33.677Z,6.10
2023-04-02T14:20:11.082Z,5.53
2023-04-02T14:22:56.356Z,5.20
2023-04-02T14:25:34.943Z,4.47
2023-04-02T14:28:39.246Z,3.60
2023-04-02T14:31:09.190Z,5.60
2023-04-02T14:33:49.454Z,5.20
2023-04-02T14:36:18.960Z,4.37
2023-04-02T14:39:01.442Z,3.97
2023-04-02T14:41:39.701Z,4.53
2023-04-02T14:44:07.484Z,3.57
2023-04-02T14:46:37.599Z,6.77
2023-04-02T14:49:07.750Z,5.03
2023-04-02T14:51:57.761Z,4.83
2023-04-02T14:54:36.130Z,4.00
2023-04-02T14:57:06.375Z,4.13
2023-04-02T14:59:35.736Z,4.93
2023-04-02T15:02:19.141Z,4.27
2023-04-02T15:04:49.769Z,4.87
2023-04-02T15:07:22.426Z,5.53
2023-04-02T15:10:02.337Z,3.70
2023-04-02T15:12:31.878Z,3.90
2023-04-02T15:15:03.253Z,3.73
2023-04-02T15:17:31.212Z,4.43
2023-04-02T15:20:13.513Z,4.57
2023-04-02T15:22:52.595Z,6.47
2023-04-02T15:25:31.931Z,5.30
2023-04-02T15:28:05.787Z,3.63
2023-04-02T15:30:38.437Z,3.00
2023-04-02T15:33:24.125Z,2.87
2023-04-02T15:36:09.553Z,2.83
2023-04-02T15:38:42.412Z,4.07
2023-04-02T15:41:09.222Z,2.47
2023-04-02T15:43:54.175Z,2.97
2023-04-02T15:46:36.287Z,2.50
2023-04-02T15:49:22.073Z,3.60
2023-04-02T15:51:52.012Z,1.93
2023-04-02T15:54:28.781Z,4.17
2023-04-02T15:57:01.558Z,2.53
2023-04-02T15:59:28.800Z,3.83
2023-04-02T16:02:00.813Z,4.70
2023-04-02T16:04:33.755Z,2.67
2023-04-02T16:07:19.730Z,3.50
2023-04-02T16:09:52.861Z,3.03
2023-04-02T16:12:20.653Z,3.00
2023-04-02T16:14:48.889Z,3.07
2023-04-02T16:17:24.790Z,3.00
2023-04-02T16:19:55.096Z,3.40
2023-04-02T16:22:30.188Z,2.63
2023-04-02T16:25:00.491Z,5.40
2023-04-02T16:27:36.226Z,3.20
2023-04-02T16:30:22.698Z,5.00
2023-04-02T16:32:56.949Z,3.87
2023-04-02T16:37:58.969Z,2.83
2023-04-02T16:40:45.134Z,4.53
2023-04-02T16:43:23.234Z,4.50
2023-04-02T16:46:01.148Z,3.20
2023-04-02T16:48:40.488Z,9.07
2023-04-02T16:51:07.354Z,4.50
2023-04-02T16:53:38.720Z,5.27
2023-04-02T16:56:23.503Z,3.67
2023-04-02T16:58:50.343Z,4.17
2023-04-02T17:01:20.105Z,2.33
2023-04-02T17:03:57.008Z,4.27
2023-04-02T17:06:41.713Z,6.27
2023-04-02T17:09:14.541Z,5.03
2023-04-02T17:11:53.173Z,3.50
2023-04-02T17:14:25.476Z,4.67
2023-04-02T17:16:56.143Z,4.43
2023-04-02T17:19:25.024Z,3.53
2023-04-02T17:21:53.106Z,3.27
2023-04-02T17:24:26.025Z,2.93
2023-04-02T17:26:55.569Z,2.77
2023-04-02T17:29:25.804Z,4.23
2023-04-02T17:31:53.783Z,3.27
2023-04-02T17:34:24.712Z,4.03
2023-04-02T17:37:10.308Z,2.33
2023-04-02T17:39:44.158Z,3.10
2023-04-02T17:42:17.998Z,3.33
2023-04-02T17:44:49.047Z,2.50
2023-04-02T17:47:45.390Z,2.90
2023-04-02T17:50:12.324Z,4.20
2023-04-02T17:52:46.322Z,4.50
2023-04-02T17:55:18.624Z,3.63
2023-04-02T17:58:23.828Z,5.30
2023-04-02T18:00:57.945Z,3.63
2023-04-02T18:03:39.873Z,4.73
2023-04-02T18:06:29.097Z,4.07
2023-04-02T18:09:15.964Z,4.40
2023-04-02T18:12:01.759Z,5.60
2023-04-02T18:14:37.112Z,9.60
2023-04-02T18:17:10.934Z,7.33
2023-04-02T18:19:42.302Z,8.43
2023-04-02T18:22:17.470Z,5.57
2023-04-02T18:24:56.736Z,5.30
2023-04-02T18:27:43.066Z,4.70
2023-04-02T18:30:26.056Z,5.13
2023-04-02T18:32:59.610Z,6.50
2023-04-02T18:35:31.704Z,4.40
2023-04-02T18:38:01.685Z,3.90
2023-04-02T18:40:47.932Z,4.00
2023-04-02T18:43:33.123Z,6.00
2023-04-02T18:46:05.269Z,5.17
2023-04-02T18:48:56.980Z,5.30
2023-04-02T18:51:25.429Z,7.03
2023-04-02T18:54:10.111Z,6.17
2023-04-02T18:56:40.968Z,4.37
2023-04-02T18:59:07.727Z,6.90
2023-04-02T19:01:38.887Z,4.87
2023-04-02T19:04:11.846Z,7.20
2023-04-02T19:06:47.824Z,6.03
2023-04-02T19:09:20.891Z,6.13
2023-04-02T19:11:49.066Z,7.77
2023-04-02T19:14:19.522Z,5.27
2023-04-02T19:16:49.344Z,6.37
2023-04-02T19:19:42.038Z,6.23
2023-04-02T19:22:29.893Z,5.57
2023-04-02T19:24:56.932Z,5.17
2023-04-02T19:27:28.165Z,5.30
2023-04-02T19:30:13.722Z,5.07
2023-04-02T19:33:00.352Z,6.30
2023-04-02T19:35:29.114Z,6.20
2023-04-02T19:38:04.771Z,5.00
2023-04-02T19:40:34.110Z,6.83
2023-04-02T19:43:00.828Z,7.47
2023-04-02T19:45:29.835Z,5.70
2023-04-02T19:47:57.378Z,5.40
2023-04-02T19:50:24.505Z,3.87
2023-04-02T19:52:51.472Z,7.00
2023-04-02T19:55:18.940Z,4.73
2023-04-02T19:57:45.694Z,5.07
2023-04-02T20:00:14.207Z,6.33
2023-04-02T20:02:41.384Z,5.93
2023-04-02T20:05:08.389Z,3.87
2023-04-02T20:07:35.139Z,4.07
2023-04-02T20:10:01.905Z,5.17
2023-04-02T20:12:29.181Z,7.43
2023-04-02T20:14:56.921Z,4.47
2023-04-02T20:17:23.794Z,4.70
2023-04-02T20:19:50.702Z,4.93
2023-04-02T20:22:19.224Z,3.43
2023-04-02T20:24:46.051Z,5.47
2023-04-02T20:27:12.903Z,3.80
2023-04-02T20:29:42.317Z,4.87
2023-04-02T20:32:10.031Z,6.30
2023-04-02T20:34:37.059Z,4.50
2023-04-02T20:37:04.491Z,5.00
2023-04-02T20:39:31.180Z,4.57
2023-04-02T20:42:02.431Z,3.40
2023-04-02T20:44:29.528Z,4.03
2023-04-02T20:46:56.440Z,4.10
2023-04-02T20:49:23.226Z,5.57
2023-04-02T20:51:49.963Z,6.30
2023-04-02T20:54:16.768Z,5.17
2023-04-02T20:56:43.517Z,4.97
2023-04-02T20:59:10.496Z,7.23
2023-04-02T21:01:37.750Z,4.13
2023-04-02T21:04:04.596Z,5.60
2023-04-02T21:06:32.713Z,6.67
2023-04-02T21:08:59.473Z,7.60
2023-04-02T21:11:27.608Z,7.47
2023-04-02T21:13:55.699Z,4.90
2023-04-02T21:16:23.949Z,5.93
2023-04-02T21:18:52.970Z,7.07
2023-04-02T21:21:21.132Z,5.60
2023-04-02T21:23:48.201Z,6.13
2023-04-02T21:26:17.039Z,5.20
2023-04-02T21:28:44.792Z,5.57
2023-04-02T21:31:13.784Z,6.17
2023-04-02T21:33:41.893Z,6.23
2023-04-02T21:36:09.744Z,6.07
2023-04-02T21:38:38.362Z,7.40
2023-04-02T21:41:15.263Z,5.60
2023-04-02T21:43:42.440Z,5.97
2023-04-02T21:46:09.646Z,6.80
2023-04-02T21:48:36.429Z,6.73
2023-04-02T21:51:11.195Z,6.27
2023-04-02T21:53:38.318Z,5.30
2023-04-02T21:56:06.748Z,6.83
2023-04-02T21:58:33.570Z,6.23
2023-04-02T22:01:00.473Z,5.03
2023-04-02T22:03:31.733Z,6.10
2023-04-02T22:06:02.777Z,5.73
2023-04-02T22:08:29.662Z,5.53
2023-04-02T22:10:57.476Z,7.30
2023-04-02T22:13:24.322Z,5.90
2023-04-02T22:15:51.185Z,5.03
2023-04-02T22:18:17.978Z,5.70
2023-04-02T22:20:45.317Z,10.07
2023-04-02T22:23:12.044Z,6.87
2023-04-02T22:25:39.412Z,6.23
2023-04-02T22:28:06.245Z,5.63
2023-04-02T22:30:34.125Z,7.03
2023-04-02T22:33:01.186Z,7.87
2023-04-02T22:35:28.881Z,6.37
2023-04-02T22:37:56.012Z,5.57
2023-04-02T22:40:22.973Z,5.33
2023-04-02T22:42:49.718Z,5.70
2023-04-02T22:45:18.435Z,4.73
2023-04-02T22:47:45.698Z,5.67
2023-04-02T22:50:12.490Z,5.47
2023-04-02T22:52:39.410Z,5.73
2023-04-02T22:55:06.588Z,8.20
2023-04-02T22:57:33.328Z,8.10
2023-04-02T23:00:00.262Z,11.40
2023-04-02T23:02:27.234Z,8.67
2023-04-02T23:04:54.051Z,7.13
2023-04-02T23:07:20.757Z,6.30
2023-04-02T23:09:47.483Z,9.50
2023-04-02T23:12:14.295Z,6.97
2023-04-02T23:14:41.057Z,6.13
2023-04-02T23:17:07.862Z,5.77
2023-04-02T23:19:34.659Z,8.53
2023-04-02T23:22:01.379Z,8.57
2023-04-02T23:24:28.154Z,7.60
2023-04-02T23:26:54.863Z,6.97
2023-04-02T23:29:21.660Z,7.13
2023-04-02T23:31:48.485Z,6.47
2023-04-02T23:34:15.303Z,6.03
2023-04-02T23:36:42.127Z,8.53
2023-04-02T23:39:11.342Z,5.17
2023-04-02T23:41:39.708Z,6.83
2023-04-02T23:44:06.695Z,7.77
2023-04-02T23:46:33.678Z,4.30
2023-04-02T23:49:01.089Z,5.43
2023-04-02T23:51:28.793Z,5.37
2023-04-02T23:53:55.727Z,3.83
2023-04-02T23:56:23.132Z,7.53
2023-04-02T23:58:51.081Z,3.37
